createdAt,value
2018-06-01T00:00:29.985Z,16.85
2018-06-01T00:01:30.000Z,16.78
2018-06-01T00:02:29.970Z,16.79
2018-06-01T00:03:29.975Z,17.01
2018-06-01T00:04:30.037Z,16.81
2018-06-01T00:05:29.995Z,16.9
2018-06-01T00:06:30.006Z,16.96
2018-06-01T00:07:30.005Z,16.75
2018-06-01T00:08:30.008Z,16.74
2018-06-01T00:09:29.995Z,16.78
2018-06-01T00:10:29.997Z,16.66
2018-06-01T00:11:30.022Z,16.76
2018-06-01T00:12:30.059Z,16.87
2018-06-01T00:13:30.009Z,16.58
2018-06-01T00:14:30.011Z,16.64
2018-06-01T00:15:30.110Z,16.63
2018-06-01T00:16:30.004Z,16.65
2018-06-01T00:17:30.051Z,16.79
2018-06-01T00:18:30.094Z,16.8
2018-06-01T00:19:30.035Z,16.65
2018-06-01T00:20:29.983Z,16.54
2018-06-01T00:21:30.029Z,16.69
2018-06-01T00:22:30.176Z,16.63
2018-06-01T00:23:30.101Z,16.7
2018-06-01T00:24:30.004Z,16.67
2018-06-01T00:25:30.036Z,16.84
2018-06-01T00:26:29.994Z,16.59
2018-06-01T00:27:30.038Z,16.61
2018-06-01T00:28:30.049Z,16.77
2018-06-01T00:29:30.052Z,16.93
2018-06-01T00:30:30.009Z,16.85
2018-06-01T00:31:30.027Z,16.76
2018-06-01T00:32:30.074Z,16.66
2018-06-01T00:33:30.019Z,16.95
2018-06-01T00:34:30.043Z,17.02
2018-06-01T00:35:30.085Z,17.1
2018-06-01T00:36:30.051Z,16.7
2018-06-01T00:37:30.025Z,16.67
2018-06-01T00:38:30.056Z,16.74
2018-06-01T00:39:30.097Z,16.61
2018-06-01T00:40:30.131Z,16.56
2018-06-01T00:41:30.086Z,16.71
2018-06-01T00:42:30.038Z,16.73
2018-06-01T00:43:30.045Z,16.65
2018-06-01T00:44:30.015Z,16.76
2018-06-01T00:45:30.043Z,16.7
2018-06-01T00:46:30.159Z,16.79
2018-06-01T00:47:30.016Z,16.76
2018-06-01T00:48:30.009Z,16.74
2018-06-01T00:49:30.157Z,16.47
2018-06-01T00:50:30.010Z,16.57
2018-06-01T00:51:30.022Z,16.6
2018-06-01T00:52:30.034Z,16.6
2018-06-01T00:53:30.036Z,16.61
2018-06-01T00:54:30.021Z,16.62
2018-06-01T00:55:30.024Z,16.74
2018-06-01T00:56:30.032Z,16.55
2018-06-01T00:57:30.047Z,16.43
2018-06-01T00:58:30.041Z,16.44
2018-06-01T00:59:30.071Z,16.44
2018-06-01T01:00:30.148Z,16.55
2018-06-01T01:01:30.008Z,16.54
2018-06-01T01:02:30.036Z,16.6
2018-06-01T01:03:30.035Z,16.62
2018-06-01T01:04:30.058Z,16.58
2018-06-01T01:05:30.038Z,16.42
2018-06-01T01:06:30.056Z,16.38
2018-06-01T01:07:30.077Z,16.47
2018-06-01T01:08:30.024Z,16.35
2018-06-01T01:09:30.042Z,16.33
2018-06-01T01:10:30.080Z,16.27
2018-06-01T01:11:30.071Z,16.37
2018-06-01T01:12:30.062Z,16.25
2018-06-01T01:13:30.113Z,16.27
2018-06-01T01:14:30.054Z,16.31
2018-06-01T01:15:30.039Z,16.25
2018-06-01T01:16:30.020Z,16.21
2018-06-01T01:17:30.071Z,16.35
2018-06-01T01:18:30.020Z,16.3
2018-06-01T01:19:30.039Z,16.37
2018-06-01T01:20:30.076Z,16.34
2018-06-01T01:21:30.103Z,16.4
2018-06-01T01:22:30.069Z,16.34
2018-06-01T01:23:30.034Z,16.33
2018-06-01T01:24:30.185Z,16.53
2018-06-01T01:25:30.166Z,16.49
2018-06-01T01:26:30.042Z,16.62
2018-06-01T01:27:30.051Z,16.48
2018-06-01T01:28:30.076Z,16.43
2018-06-01T01:29:30.068Z,16.63
2018-06-01T01:30:30.076Z,16.66
2018-06-01T01:31:30.164Z,16.55
2018-06-01T01:32:30.042Z,16.53
2018-06-01T01:33:30.050Z,16.53
2018-06-01T01:34:30.084Z,16.48
2018-06-01T01:35:30.065Z,16.36
2018-06-01T01:36:30.055Z,16.43
2018-06-01T01:37:30.063Z,16.44
2018-06-01T01:38:30.078Z,16.48
2018-06-01T01:39:30.075Z,16.44
2018-06-01T01:40:30.049Z,16.37
2018-06-01T01:41:30.044Z,16.39
2018-06-01T01:42:30.185Z,16.4
2018-06-01T01:43:30.040Z,16.49
2018-06-01T01:44:30.276Z,16.28
2018-06-01T01:45:30.084Z,16.45
2018-06-01T01:46:30.076Z,16.44
2018-06-01T01:47:30.078Z,16.28
2018-06-01T01:48:30.071Z,16.51
2018-06-01T01:49:30.050Z,16.58
2018-06-01T01:50:30.049Z,16.43
2018-06-01T01:51:30.093Z,16.37
2018-06-01T01:52:30.094Z,16.46
2018-06-01T01:53:30.079Z,16.52
2018-06-01T01:54:30.060Z,16.54
2018-06-01T01:55:30.095Z,16.61
2018-06-01T01:56:30.058Z,16.5
2018-06-01T01:57:30.098Z,16.62
2018-06-01T01:58:30.107Z,16.61
2018-06-01T01:59:30.133Z,16.68
2018-06-01T02:00:30.060Z,16.58
2018-06-01T02:01:30.068Z,16.68
2018-06-01T02:02:30.245Z,16.79
2018-06-01T02:03:30.075Z,16.62
2018-06-01T02:04:30.165Z,16.45
2018-06-01T02:05:30.165Z,16.54
2018-06-01T02:06:30.062Z,16.62
2018-06-01T02:07:30.051Z,16.7
2018-06-01T02:08:30.086Z,16.7
2018-06-01T02:09:30.124Z,16.64
2018-06-01T02:10:30.446Z,16.79
2018-06-01T02:11:30.144Z,16.74
2018-06-01T02:12:30.153Z,16.66
2018-06-01T02:13:30.127Z,16.67
2018-06-01T02:14:30.139Z,16.59
2018-06-01T02:15:30.106Z,16.53
2018-06-01T02:16:30.142Z,16.64
2018-06-01T02:17:30.112Z,16.56
2018-06-01T02:18:30.118Z,16.33
2018-06-01T02:19:30.124Z,16.4
2018-06-01T02:20:30.228Z,16.44
2018-06-01T02:21:30.079Z,16.48
2018-06-01T02:22:30.082Z,16.48
2018-06-01T02:23:30.114Z,16.53
2018-06-01T02:24:30.100Z,16.66
2018-06-01T02:25:30.131Z,16.43
2018-06-01T02:26:30.114Z,16.42
2018-06-01T02:27:30.139Z,16.51
2018-06-01T02:28:30.123Z,16.51
2018-06-01T02:29:30.131Z,16.23
2018-06-01T02:30:30.142Z,16.51
2018-06-01T02:31:30.290Z,16.4
2018-06-01T02:32:30.105Z,16.43
2018-06-01T02:33:30.119Z,16.43
2018-06-01T02:34:30.164Z,16.4
2018-06-01T02:35:30.889Z,16.49
2018-06-01T02:36:30.130Z,16.41
2018-06-01T02:37:30.112Z,16.42
2018-06-01T02:38:30.131Z,16.33
2018-06-01T02:39:30.261Z,16.4
2018-06-01T02:40:30.130Z,16.27
2018-06-01T02:41:30.149Z,16.35
2018-06-01T02:42:30.122Z,16.41
2018-06-01T02:43:30.131Z,16.35
2018-06-01T02:44:30.166Z,16.3
2018-06-01T02:45:30.168Z,16.29
2018-06-01T02:46:30.157Z,16.3
2018-06-01T02:47:30.163Z,16.27
2018-06-01T02:48:30.631Z,16.24
2018-06-01T02:49:30.132Z,16.31
2018-06-01T02:50:30.117Z,16.33
2018-06-01T02:51:30.152Z,16.15
2018-06-01T02:52:30.191Z,16.19
2018-06-01T02:53:30.127Z,16.07
2018-06-01T02:54:30.130Z,16.15
2018-06-01T02:55:30.111Z,16.12
2018-06-01T02:56:30.363Z,16.28
2018-06-01T02:57:30.136Z,16.13
2018-06-01T02:58:30.126Z,16.1
2018-06-01T02:59:30.163Z,16.04
2018-06-01T03:00:30.135Z,16.06
2018-06-01T03:01:30.146Z,16.05
2018-06-01T03:02:30.253Z,16.1
2018-06-01T03:03:30.098Z,16.01
2018-06-01T03:04:30.127Z,15.96
2018-06-01T03:05:30.141Z,15.92
2018-06-01T03:06:30.107Z,15.9
2018-06-01T03:07:30.146Z,16.04
2018-06-01T03:08:30.232Z,15.83
2018-06-01T03:09:30.121Z,15.85
2018-06-01T03:10:30.105Z,15.86
2018-06-01T03:11:30.158Z,15.85
2018-06-01T03:12:30.138Z,15.87
2018-06-01T03:13:30.113Z,15.93
2018-06-01T03:14:30.123Z,15.97
2018-06-01T03:15:30.154Z,15.88
2018-06-01T03:16:30.099Z,15.98
2018-06-01T03:17:30.136Z,16
2018-06-01T03:18:30.110Z,15.93
2018-06-01T03:19:30.121Z,15.98
2018-06-01T03:20:30.408Z,15.88
2018-06-01T03:21:30.110Z,15.97
2018-06-01T03:22:30.137Z,15.86
2018-06-01T03:23:30.183Z,15.81
2018-06-01T03:24:30.144Z,15.86
2018-06-01T03:25:30.203Z,15.96
2018-06-01T03:26:30.157Z,15.94
2018-06-01T03:27:30.124Z,16.02
2018-06-01T03:28:30.167Z,16.03
2018-06-01T03:29:30.136Z,15.96
2018-06-01T03:30:30.342Z,15.8
2018-06-01T03:31:30.140Z,15.77
2018-06-01T03:32:30.150Z,15.82
2018-06-01T03:33:30.098Z,15.88
2018-06-01T03:34:30.111Z,15.88
2018-06-01T03:35:30.118Z,15.83
2018-06-01T03:36:30.136Z,15.89
2018-06-01T03:37:30.154Z,15.97
2018-06-01T03:38:30.179Z,15.87
2018-06-01T03:39:30.136Z,15.92
2018-06-01T03:40:30.107Z,15.89
2018-06-01T03:41:30.121Z,16.02
2018-06-01T03:42:30.154Z,15.94
2018-06-01T03:43:30.163Z,15.97
2018-06-01T03:44:30.155Z,16.04
2018-06-01T03:45:30.138Z,16.02
2018-06-01T03:46:30.153Z,15.99
2018-06-01T03:47:30.250Z,15.83
2018-06-01T03:48:30.159Z,15.87
2018-06-01T03:49:30.152Z,15.92
2018-06-01T03:50:30.147Z,15.93
2018-06-01T03:51:30.122Z,16.05
2018-06-01T03:52:30.155Z,16.04
2018-06-01T03:53:30.204Z,16.03
2018-06-01T03:54:30.209Z,16.08
2018-06-01T03:55:30.177Z,16.2
2018-06-01T03:56:30.198Z,16.07
2018-06-01T03:57:30.143Z,16.01
2018-06-01T03:58:30.330Z,16.02
2018-06-01T03:59:30.171Z,16.02
2018-06-01T04:00:30.167Z,16.03
2018-06-01T04:01:30.175Z,15.98
2018-06-01T04:02:30.135Z,15.97
2018-06-01T04:03:30.162Z,16.07
2018-06-01T04:04:30.147Z,16.09
2018-06-01T04:05:30.145Z,16.13
2018-06-01T04:06:30.218Z,16.08
2018-06-01T04:07:30.243Z,16.12
2018-06-01T04:08:30.134Z,16.15
2018-06-01T04:09:30.176Z,16.16
2018-06-01T04:10:30.282Z,16.2
2018-06-01T04:11:30.178Z,16.14
2018-06-01T04:12:30.116Z,16.17
2018-06-01T04:13:30.160Z,16.08
2018-06-01T04:14:30.184Z,16.07
2018-06-01T04:15:30.174Z,16.14
2018-06-01T04:16:30.134Z,16.14
2018-06-01T04:17:30.193Z,16.15
2018-06-01T04:18:30.199Z,16.14
2018-06-01T04:19:30.133Z,16.11
2018-06-01T04:20:30.232Z,16.18
2018-06-01T04:21:30.224Z,16.2
2018-06-01T04:22:30.158Z,16.14
2018-06-01T04:23:30.155Z,16.19
2018-06-01T04:24:30.153Z,16.2
2018-06-01T04:25:30.206Z,16.18
2018-06-01T04:26:30.200Z,16.16
2018-06-01T04:27:30.213Z,16.26
2018-06-01T04:28:30.232Z,16.28
2018-06-01T04:29:30.164Z,16.23
2018-06-01T04:30:30.193Z,16.25
2018-06-01T04:31:30.132Z,16.31
2018-06-01T04:32:30.150Z,16.21
2018-06-01T04:33:30.131Z,16.32
2018-06-01T04:34:30.172Z,16.31
2018-06-01T04:35:30.175Z,16.22
2018-06-01T04:36:30.154Z,16.18
2018-06-01T04:37:30.175Z,16.19
2018-06-01T04:38:30.208Z,16.21
2018-06-01T04:39:30.219Z,16.21
2018-06-01T04:40:30.339Z,16.15
2018-06-01T04:41:30.170Z,16.25
2018-06-01T04:42:30.181Z,16.28
2018-06-01T04:43:30.182Z,16.31
2018-06-01T04:44:30.155Z,16.17
2018-06-01T04:45:30.170Z,16.2
2018-06-01T04:46:30.235Z,16.27
2018-06-01T04:47:30.160Z,16.21
2018-06-01T04:48:30.188Z,16.17
2018-06-01T04:49:30.181Z,16.06
2018-06-01T04:50:30.183Z,16.1
2018-06-01T04:51:30.240Z,16.19
2018-06-01T04:52:30.164Z,16.19
2018-06-01T04:53:30.173Z,16.27
2018-06-01T04:54:30.172Z,16.27
2018-06-01T04:55:30.211Z,16.21
2018-06-01T04:56:30.220Z,16.16
2018-06-01T04:57:30.189Z,16.26
2018-06-01T04:58:30.158Z,16.13
2018-06-01T04:59:30.189Z,16.22
2018-06-01T05:00:30.308Z,16.17
2018-06-01T05:01:30.353Z,16.24
2018-06-01T05:02:30.200Z,16.19
2018-06-01T05:03:30.167Z,16.21
2018-06-01T05:04:30.182Z,16.19
2018-06-01T05:05:30.149Z,16.13
2018-06-01T05:06:30.186Z,16.21
2018-06-01T05:07:30.194Z,16.28
2018-06-01T05:08:30.240Z,16.22
2018-06-01T05:09:30.186Z,16.2
2018-06-01T05:10:30.195Z,16.22
2018-06-01T05:11:30.201Z,16.09
2018-06-01T05:12:30.251Z,16.21
2018-06-01T05:13:30.186Z,16.2
2018-06-01T05:14:30.208Z,16.13
2018-06-01T05:15:30.284Z,16.21
2018-06-01T05:16:30.431Z,16.2
2018-06-01T05:17:30.280Z,16.21
2018-06-01T05:18:30.164Z,16.25
2018-06-01T05:19:30.207Z,16.37
2018-06-01T05:20:30.355Z,16.42
2018-06-01T05:21:30.210Z,16.26
2018-06-01T05:22:30.180Z,16.2
2018-06-01T05:23:30.188Z,16.14
2018-06-01T05:24:30.224Z,16.21
2018-06-01T05:25:30.273Z,16.29
2018-06-01T05:26:30.256Z,16.27
2018-06-01T05:27:30.230Z,16.27
2018-06-01T05:28:30.284Z,16.23
2018-06-01T05:29:30.184Z,16.25
2018-06-01T05:30:30.252Z,16.36
2018-06-01T05:31:30.187Z,16.16
2018-06-01T05:32:30.204Z,16.22
2018-06-01T05:33:30.215Z,16.23
2018-06-01T05:34:30.293Z,16.21
2018-06-01T05:35:30.552Z,16.25
2018-06-01T05:36:30.293Z,16.25
2018-06-01T05:37:30.254Z,16.36
2018-06-01T05:38:30.239Z,16.43
2018-06-01T05:39:30.479Z,16.33
2018-06-01T05:40:30.268Z,16.15
2018-06-01T05:41:30.379Z,16.2
2018-06-01T05:42:30.276Z,16.3
2018-06-01T05:43:30.241Z,16.36
2018-06-01T05:44:30.276Z,16.27
2018-06-01T05:45:30.221Z,16.17
2018-06-01T05:46:30.203Z,16.25
2018-06-01T05:47:30.815Z,16.26
2018-06-01T05:48:30.341Z,16.38
2018-06-01T05:49:30.177Z,16.25
2018-06-01T05:50:30.178Z,16.18
2018-06-01T05:51:30.185Z,16.22
2018-06-01T05:52:30.241Z,16.22
2018-06-01T05:53:30.239Z,16.21
2018-06-01T05:54:30.519Z,16.21
2018-06-01T05:55:30.224Z,16.27
2018-06-01T05:56:30.227Z,16.33
2018-06-01T05:57:30.190Z,16.28
2018-06-01T05:58:30.242Z,16.29
2018-06-01T05:59:30.223Z,16.43
2018-06-01T06:00:30.238Z,16.35
2018-06-01T06:01:30.234Z,16.4
2018-06-01T06:02:30.242Z,16.42
2018-06-01T06:03:30.268Z,16.45
2018-06-01T06:04:30.445Z,16.56
2018-06-01T06:05:30.198Z,16.57
2018-06-01T06:06:30.227Z,16.65
2018-06-01T06:07:30.169Z,16.62
2018-06-01T06:08:30.217Z,16.68
2018-06-01T06:09:30.257Z,16.62
2018-06-01T06:10:30.206Z,16.53
2018-06-01T06:11:30.221Z,16.53
2018-06-01T06:12:30.256Z,16.62
2018-06-01T06:13:30.645Z,16.53
2018-06-01T06:14:30.223Z,16.61
2018-06-01T06:15:30.594Z,16.68
2018-06-01T06:16:30.350Z,16.69
2018-06-01T06:17:30.278Z,16.66
2018-06-01T06:18:30.260Z,16.65
2018-06-01T06:19:30.323Z,16.66
2018-06-01T06:20:30.293Z,16.78
2018-06-01T06:21:30.247Z,16.73
2018-06-01T06:22:30.275Z,16.8
2018-06-01T06:23:30.266Z,16.68
2018-06-01T06:24:30.207Z,16.72
2018-06-01T06:25:30.335Z,16.64
2018-06-01T06:26:30.220Z,16.67
2018-06-01T06:27:30.227Z,16.69
2018-06-01T06:28:30.242Z,16.76
2018-06-01T06:29:30.345Z,16.75
2018-06-01T06:30:30.210Z,16.73
2018-06-01T06:31:30.504Z,16.8
2018-06-01T06:32:30.268Z,16.79
2018-06-01T06:33:30.270Z,16.83
2018-06-01T06:34:30.445Z,16.8
2018-06-01T06:35:30.234Z,16.77
2018-06-01T06:36:30.266Z,16.69
2018-06-01T06:37:30.389Z,16.71
2018-06-01T06:38:30.323Z,16.59
2018-06-01T06:39:30.272Z,16.58
2018-06-01T06:40:30.234Z,16.67
2018-06-01T06:41:30.282Z,16.75
2018-06-01T06:42:30.231Z,16.85
2018-06-01T06:43:30.288Z,16.53
2018-06-01T06:44:30.257Z,16.58
2018-06-01T06:45:30.219Z,16.62
2018-06-01T06:46:30.336Z,16.63
2018-06-01T06:47:30.267Z,16.79
2018-06-01T06:48:30.228Z,16.67
2018-06-01T06:49:30.308Z,16.62
2018-06-01T06:50:30.234Z,16.67
2018-06-01T06:51:30.266Z,16.64
2018-06-01T06:52:30.308Z,16.67
2018-06-01T06:53:30.272Z,16.79
2018-06-01T06:54:30.316Z,16.9
2018-06-01T06:55:30.282Z,16.86
2018-06-01T06:56:30.341Z,16.93
2018-06-01T06:57:30.311Z,16.89
2018-06-01T06:58:30.238Z,16.74
2018-06-01T06:59:30.288Z,16.39
2018-06-01T07:00:30.288Z,16.46
2018-06-01T07:01:30.288Z,16.55
2018-06-01T07:02:30.224Z,16.57
2018-06-01T07:03:30.265Z,16.69
2018-06-01T07:04:31.159Z,16.63
2018-06-01T07:05:30.266Z,16.61
2018-06-01T07:06:30.244Z,16.63
2018-06-01T07:07:30.253Z,16.64
2018-06-01T07:08:30.223Z,16.74
2018-06-01T07:09:30.231Z,16.58
2018-06-01T07:10:30.251Z,16.6
2018-06-01T07:11:30.252Z,16.73
2018-06-01T07:12:30.598Z,16.69
2018-06-01T07:13:30.246Z,16.62
2018-06-01T07:14:30.237Z,16.65
2018-06-01T07:15:30.247Z,16.5
2018-06-01T07:16:30.252Z,16.58
2018-06-01T07:17:30.273Z,16.41
2018-06-01T07:18:30.296Z,16.36
2018-06-01T07:19:30.284Z,16.44
2018-06-01T07:20:30.875Z,16.47
2018-06-01T07:21:30.292Z,16.65
2018-06-01T07:22:30.891Z,16.44
2018-06-01T07:23:30.258Z,16.36
2018-06-01T07:24:30.376Z,16.45
2018-06-01T07:25:30.227Z,16.53
2018-06-01T07:26:30.355Z,16.51
2018-06-01T07:27:30.227Z,16.56
2018-06-01T07:28:30.257Z,16.32
2018-06-01T07:29:30.310Z,16.37
2018-06-01T07:30:30.275Z,16.38
2018-06-01T07:31:30.284Z,16.36
2018-06-01T07:32:30.313Z,16.29
2018-06-01T07:33:30.285Z,16.36
2018-06-01T07:34:30.348Z,16.53
2018-06-01T07:35:30.296Z,16.38
2018-06-01T07:36:30.273Z,16.5
2018-06-01T07:37:30.399Z,16.54
2018-06-01T07:38:30.302Z,16.53
2018-06-01T07:39:30.293Z,16.47
2018-06-01T07:40:30.257Z,16.68
2018-06-01T07:41:30.311Z,16.61
2018-06-01T07:42:30.318Z,16.57
2018-06-01T07:43:30.307Z,16.74
2018-06-01T07:44:30.299Z,16.42
2018-06-01T07:45:30.295Z,16.25
2018-06-01T07:46:30.291Z,16.45
2018-06-01T07:47:30.315Z,16.32
2018-06-01T07:48:30.273Z,16.49
2018-06-01T07:49:30.339Z,16.61
2018-06-01T07:50:30.384Z,16.64
2018-06-01T07:51:30.330Z,16.69
2018-06-01T07:52:30.295Z,16.61
2018-06-01T07:53:30.331Z,16.75
2018-06-01T07:54:30.737Z,16.53
2018-06-01T07:55:30.295Z,16.49
2018-06-01T07:56:30.309Z,16.39
2018-06-01T07:57:30.279Z,16.33
2018-06-01T07:58:30.304Z,16.34
2018-06-01T07:59:30.314Z,16.49
2018-06-01T08:00:30.303Z,16.56
2018-06-01T08:01:30.277Z,16.62
2018-06-01T08:02:30.273Z,16.74
2018-06-01T08:03:30.581Z,16.82
2018-06-01T08:04:30.314Z,16.7
2018-06-01T08:05:30.416Z,16.74
2018-06-01T08:06:30.327Z,16.84
2018-06-01T08:07:31.872Z,16.83
2018-06-01T08:08:30.265Z,16.6
2018-06-01T08:09:30.305Z,16.61
2018-06-01T08:10:30.295Z,16.43
2018-06-01T08:11:30.882Z,16.56
2018-06-01T08:12:30.268Z,16.53
2018-06-01T08:13:30.347Z,16.36
2018-06-01T08:14:30.343Z,16.47
2018-06-01T08:15:30.422Z,16.67
2018-06-01T08:16:30.469Z,16.61
2018-06-01T08:17:30.374Z,16.68
2018-06-01T08:18:30.314Z,16.67
2018-06-01T08:19:30.285Z,16.65
2018-06-01T08:20:31.614Z,16.5
2018-06-01T08:21:30.972Z,16.39
2018-06-01T08:22:30.279Z,16.25
2018-06-01T08:23:30.317Z,16.45
2018-06-01T08:24:30.326Z,16.38
2018-06-01T08:25:30.298Z,16.4
2018-06-01T08:26:30.359Z,16.41
2018-06-01T08:27:30.296Z,16.39
2018-06-01T08:28:30.283Z,16.46
2018-06-01T08:29:30.324Z,16.57
2018-06-01T08:30:30.437Z,16.57
2018-06-01T08:31:30.298Z,16.66
2018-06-01T08:32:30.519Z,16.74
2018-06-01T08:33:30.269Z,16.69
2018-06-01T08:34:30.302Z,16.56
2018-06-01T08:35:30.299Z,16.59
2018-06-01T08:36:30.917Z,16.36
2018-06-01T08:37:30.341Z,16.27
2018-06-01T08:38:30.351Z,16.18
2018-06-01T08:39:30.537Z,16.19
2018-06-01T08:40:30.330Z,16.22
2018-06-01T08:41:30.340Z,16.35
2018-06-01T08:42:30.299Z,16.54
2018-06-01T08:43:30.314Z,16.56
2018-06-01T08:44:30.313Z,16.42
2018-06-01T08:45:30.350Z,16.56
2018-06-01T08:46:30.653Z,15.95
2018-06-01T08:47:30.298Z,16.03
2018-06-01T08:48:30.288Z,16.17
2018-06-01T08:49:30.274Z,16.3
2018-06-01T08:50:30.321Z,16.17
2018-06-01T08:51:30.428Z,16.1
2018-06-01T08:52:30.745Z,16.19
2018-06-01T08:53:30.305Z,16.26
2018-06-01T08:54:30.450Z,16.2
2018-06-01T08:55:30.572Z,16.33
2018-06-01T08:56:30.478Z,16.32
2018-06-01T08:57:30.474Z,16.12
2018-06-01T08:58:30.340Z,16.25
2018-06-01T08:59:30.281Z,16.22
2018-06-01T09:00:30.405Z,16.04
2018-06-01T09:01:30.398Z,16.03
2018-06-01T09:02:30.553Z,16.24
2018-06-01T09:03:30.436Z,16.34
2018-06-01T09:04:30.540Z,16.24
2018-06-01T09:05:30.326Z,16.27
2018-06-01T09:06:30.445Z,16.49
2018-06-01T09:07:30.476Z,16.37
2018-06-01T09:08:30.325Z,16.45
2018-06-01T09:09:30.464Z,16.58
2018-06-01T09:10:30.347Z,16.58
2018-06-01T09:11:30.473Z,16.45
2018-06-01T09:12:30.463Z,16.2
2018-06-01T09:13:30.509Z,16.15
2018-06-01T09:14:30.373Z,16.26
2018-06-01T09:15:30.501Z,16.28
2018-06-01T09:16:30.360Z,16.29
2018-06-01T09:17:30.318Z,16.53
2018-06-01T09:18:30.526Z,16.35
2018-06-01T09:19:30.634Z,16.4
2018-06-01T09:20:30.538Z,16.37
2018-06-01T09:21:30.539Z,16.5
2018-06-01T09:22:30.543Z,16.52
2018-06-01T09:23:30.887Z,16.41
2018-06-01T09:24:30.488Z,16.62
2018-06-01T09:25:30.476Z,16.43
2018-06-01T09:26:30.483Z,16.45
2018-06-01T09:27:30.474Z,16.55
2018-06-01T09:28:30.799Z,16.5
2018-06-01T09:29:30.353Z,16.72
2018-06-01T09:30:30.426Z,16.71
2018-06-01T09:31:30.529Z,16.46
2018-06-01T09:32:30.625Z,16.06
2018-06-01T09:33:30.520Z,16.22
2018-06-01T09:34:31.094Z,16.41
2018-06-01T09:35:30.317Z,16.59
2018-06-01T09:36:30.542Z,16.61
2018-06-01T09:37:30.445Z,16.37
2018-06-01T09:38:30.362Z,16.35
2018-06-01T09:39:30.459Z,16.39
2018-06-01T09:40:30.450Z,16.48
2018-06-01T09:41:30.492Z,16.55
2018-06-01T09:42:30.583Z,16.62
2018-06-01T09:43:30.687Z,16.53
2018-06-01T09:44:30.491Z,16.55
2018-06-01T09:45:30.602Z,16.59
2018-06-01T09:46:30.515Z,16.4
2018-06-01T09:47:30.400Z,16.44
2018-06-01T09:48:30.431Z,16.57
2018-06-01T09:49:30.425Z,16.78
2018-06-01T09:50:30.544Z,16.74
2018-06-01T09:51:30.542Z,16.66
2018-06-01T09:52:30.467Z,16.52
2018-06-01T09:53:30.452Z,16.71
2018-06-01T09:54:30.456Z,16.72
2018-06-01T09:55:30.997Z,16.62
2018-06-01T09:56:30.468Z,16.66
2018-06-01T09:57:30.514Z,16.75
2018-06-01T09:58:30.324Z,16.76
2018-06-01T09:59:30.490Z,16.49
2018-06-01T10:00:30.579Z,16.29
2018-06-01T10:01:30.361Z,16.35
2018-06-01T10:02:30.545Z,16.36
2018-06-01T10:03:30.402Z,16.33
2018-06-01T10:04:30.539Z,16.51
2018-06-01T10:05:30.535Z,16.61
2018-06-01T10:06:30.533Z,16.7
2018-06-01T10:07:30.489Z,16.9
2018-06-01T10:08:30.417Z,17.02
2018-06-01T10:09:30.670Z,16.71
2018-06-01T10:10:30.346Z,16.72
2018-06-01T10:11:30.359Z,16.84
2018-06-01T10:12:30.497Z,17.06
2018-06-01T10:13:30.450Z,17.18
2018-06-01T10:14:30.400Z,16.9
2018-06-01T10:15:30.769Z,17.1
2018-06-01T10:16:30.516Z,16.63
2018-06-01T10:17:30.406Z,16.77
2018-06-01T10:18:30.510Z,16.83
2018-06-01T10:19:30.336Z,16.87
2018-06-01T10:20:30.399Z,16.81
2018-06-01T10:21:30.444Z,16.87
2018-06-01T10:22:30.484Z,16.99
2018-06-01T10:23:30.532Z,16.72
2018-06-01T10:24:30.556Z,16.65
2018-06-01T10:25:30.330Z,16.77
2018-06-01T10:26:30.554Z,16.78
2018-06-01T10:27:30.491Z,16.87
2018-06-01T10:28:30.687Z,16.74
2018-06-01T10:29:30.376Z,16.38
2018-06-01T10:30:30.503Z,16.25
2018-06-01T10:31:30.383Z,16.33
2018-06-01T10:32:30.405Z,16.34
2018-06-01T10:33:30.579Z,16.22
2018-06-01T10:34:30.535Z,16.49
2018-06-01T10:35:30.436Z,16.66
2018-06-01T10:36:30.749Z,16.8
2018-06-01T10:37:30.344Z,16.97
2018-06-01T10:38:30.361Z,16.77
2018-06-01T10:39:30.841Z,16.76
2018-06-01T10:40:30.351Z,16.59
2018-06-01T10:41:30.372Z,16.71
2018-06-01T10:42:30.590Z,16.72
2018-06-01T10:43:30.377Z,16.44
2018-06-01T10:44:30.534Z,16.26
2018-06-01T10:45:30.500Z,16.26
2018-06-01T10:46:30.519Z,16.5
2018-06-01T10:47:30.369Z,16.36
2018-06-01T10:48:30.515Z,16.39
2018-06-01T10:49:30.508Z,16.27
2018-06-01T10:50:30.380Z,16.07
2018-06-01T10:51:30.565Z,16.06
2018-06-01T10:52:30.558Z,16.22
2018-06-01T10:53:30.438Z,16.54
2018-06-01T10:54:30.800Z,16.51
2018-06-01T10:55:30.366Z,16.28
2018-06-01T10:56:30.784Z,16.27
2018-06-01T10:57:30.369Z,16.05
2018-06-01T10:58:30.388Z,15.93
2018-06-01T10:59:30.495Z,16.43
2018-06-01T11:00:30.386Z,16.4
2018-06-01T11:01:30.624Z,16.44
2018-06-01T11:02:30.534Z,16.56
2018-06-01T11:03:30.392Z,16.81
2018-06-01T11:04:30.382Z,17.01
2018-06-01T11:05:30.430Z,16.43
2018-06-01T11:06:30.405Z,15.99
2018-06-01T11:07:30.385Z,16.47
2018-06-01T11:08:30.485Z,16.71
2018-06-01T11:09:30.533Z,16.17
2018-06-01T11:10:30.388Z,16.42
2018-06-01T11:11:30.590Z,15.97
2018-06-01T11:12:30.461Z,15.82
2018-06-01T11:13:30.388Z,15.76
2018-06-01T11:14:30.894Z,15.4
2018-06-01T11:15:30.387Z,15.95
2018-06-01T11:16:30.398Z,15.64
2018-06-01T11:17:30.520Z,15.78
2018-06-01T11:18:30.516Z,15.63
2018-06-01T11:19:30.561Z,15.9
2018-06-01T11:20:30.551Z,15.93
2018-06-01T11:21:30.790Z,16.12
2018-06-01T11:22:30.424Z,15.92
2018-06-01T11:23:30.553Z,15.61
2018-06-01T11:24:32.509Z,15.4
2018-06-01T11:25:30.474Z,15.37
2018-06-01T11:26:30.471Z,15.59
2018-06-01T11:27:30.403Z,15.46
2018-06-01T11:28:30.401Z,15.44
2018-06-01T11:29:30.622Z,15.62
2018-06-01T11:30:30.493Z,15.45
2018-06-01T11:31:30.476Z,15.45
2018-06-01T11:32:30.547Z,15.4
2018-06-01T11:33:31.201Z,15.63
2018-06-01T11:34:30.429Z,15.75
2018-06-01T11:35:30.437Z,15.89
2018-06-01T11:36:30.556Z,16.01
2018-06-01T11:37:30.413Z,15.58
2018-06-01T11:38:30.557Z,15.71
2018-06-01T11:39:30.452Z,15.43
2018-06-01T11:40:30.581Z,15.93
2018-06-01T11:41:30.469Z,15.11
2018-06-01T11:42:30.421Z,15.25
2018-06-01T11:43:30.495Z,15.04
2018-06-01T11:44:30.617Z,15.13
2018-06-01T11:45:30.401Z,15.19
2018-06-01T11:46:30.447Z,15.2
2018-06-01T11:47:30.533Z,15.05
2018-06-01T11:48:30.528Z,14.9
2018-06-01T11:49:30.434Z,15.34
2018-06-01T11:50:30.543Z,15.48
2018-06-01T11:51:30.793Z,15.17
2018-06-01T11:52:30.434Z,15.25
2018-06-01T11:53:30.663Z,14.97
2018-06-01T11:54:30.429Z,15.19
2018-06-01T11:55:31.396Z,15.44
2018-06-01T11:56:30.685Z,15.28
2018-06-01T11:57:30.624Z,15.64
2018-06-01T11:58:30.459Z,15.23
2018-06-01T11:59:30.609Z,15.33
2018-06-01T12:00:30.441Z,15.51
2018-06-01T12:01:30.427Z,15.02
2018-06-01T12:02:30.414Z,15.26
2018-06-01T12:03:30.632Z,15.19
2018-06-01T12:04:30.429Z,15.48
2018-06-01T12:05:30.652Z,15.82
2018-06-01T12:06:30.434Z,15.65
2018-06-01T12:07:30.510Z,15.56
2018-06-01T12:08:30.555Z,15.56
2018-06-01T12:09:30.420Z,15.35
2018-06-01T12:10:30.438Z,15.76
2018-06-01T12:11:30.612Z,16.09
2018-06-01T12:12:30.421Z,15.67
2018-06-01T12:13:30.458Z,15.76
2018-06-01T12:14:30.415Z,15.97
2018-06-01T12:15:30.491Z,16.07
2018-06-01T12:16:30.422Z,15.5
2018-06-01T12:17:30.835Z,15.96
2018-06-01T12:18:30.418Z,15.91
2018-06-01T12:19:30.434Z,15.79
2018-06-01T12:20:30.553Z,15.6
2018-06-01T12:21:30.440Z,15
2018-06-01T12:22:30.417Z,15.24
2018-06-01T12:23:30.560Z,15.38
2018-06-01T12:24:30.422Z,15.14
2018-06-01T12:25:30.468Z,14.96
2018-06-01T12:26:30.475Z,15.13
2018-06-01T12:27:30.441Z,15.34
2018-06-01T12:28:30.505Z,15.41
2018-06-01T12:29:30.428Z,15.23
2018-06-01T12:30:30.611Z,15.29
2018-06-01T12:31:30.456Z,15.19
2018-06-01T12:32:30.631Z,15.59
2018-06-01T12:33:30.430Z,16.05
2018-06-01T12:34:30.479Z,15.71
2018-06-01T12:35:30.569Z,15.94
2018-06-01T12:36:30.700Z,15.66
2018-06-01T12:37:30.893Z,16.04
2018-06-01T12:38:30.744Z,14.95
2018-06-01T12:39:30.498Z,15.36
2018-06-01T12:40:30.440Z,15.33
2018-06-01T12:41:30.634Z,15.53
2018-06-01T12:42:30.473Z,15.73
2018-06-01T12:43:30.488Z,15.35
2018-06-01T12:44:30.525Z,15.51
2018-06-01T12:45:30.507Z,15.99
2018-06-01T12:46:30.436Z,15.75
2018-06-01T12:47:30.629Z,15.31
2018-06-01T12:48:30.553Z,15.4
2018-06-01T12:49:30.537Z,15.42
2018-06-01T12:50:30.674Z,15.82
2018-06-01T12:51:30.543Z,15.51
2018-06-01T12:52:30.514Z,15.7
2018-06-01T12:53:30.661Z,15.58
2018-06-01T12:54:30.568Z,15.4
2018-06-01T12:55:30.672Z,15.57